sensor_id;sensor_type;location;lat;lon;timestamp;temperature;humidity
39219;DHT22;24934;52.752;6.964;2023-10-13T00:00:34;16.10;99.90
39219;DHT22;24934;52.752;6.964;2023-10-13T00:03:03;16.10;99.90
39219;DHT22;24934;52.752;6.964;2023-10-13T00:05:31;16.10;99.90
39219;DHT22;24934;52.752;6.964;2023-10-13T00:08:00;16.10;99.90
39219;DHT22;24934;52.752;6.964;2023-10-13T00:10:30;16.10;99.90
39219;DHT22;24934;52.752;6.964;2023-10-13T00:12:56;16.10;99.90
39219;DHT22;24934;52.752;6.964;2023-10-13T00:15:39;16.10;99.90
39219;DHT22;24934;52.752;6.964;2023-10-13T00:18:07;16.10;99.90
39219;DHT22;24934;52.752;6.964;2023-10-13T00:20:39;16.10;99.90
39219;DHT22;24934;52.752;6.964;2023-10-13T00:23:05;16.10;99.90
39219;DHT22;24934;52.752;6.964;2023-10-13T00:25:31;16.10;99.90
39219;DHT22;24934;52.752;6.964;2023-10-13T00:28:05;16.10;99.90
39219;DHT22;24934;52.752;6.964;2023-10-13T00:30:33;16.10;99.90
39219;DHT22;24934;52.752;6.964;2023-10-13T00:32:59;16.10;99.90
39219;DHT22;24934;52.752;6.964;2023-10-13T00:35:29;16.10;99.90
39219;DHT22;24934;52.752;6.964;2023-10-13T00:38:01;16.20;99.90
39219;DHT22;24934;52.752;6.964;2023-10-13T00:40:38;16.20;99.90
39219;DHT22;24934;52.752;6.964;2023-10-13T00:43:04;16.20;99.90
39219;DHT22;24934;52.752;6.964;2023-10-13T00:45:52;16.20;99.90
39219;DHT22;24934;52.752;6.964;2023-10-13T00:48:27;16.20;99.90
39219;DHT22;24934;52.752;6.964;2023-10-13T00:51:05;16.20;99.90
39219;DHT22;24934;52.752;6.964;2023-10-13T00:53:38;16.20;99.90
39219;DHT22;24934;52.752;6.964;2023-10-13T00:56:13;16.20;99.90
39219;DHT22;24934;52.752;6.964;2023-10-13T00:58:48;16.20;99.90
39219;DHT22;24934;52.752;6.964;2023-10-13T01:01:17;16.20;99.90
39219;DHT22;24934;52.752;6.964;2023-10-13T01:03:52;16.20;99.90
39219;DHT22;24934;52.752;6.964;2023-10-13T01:06:21;16.20;99.90
39219;DHT22;24934;52.752;6.964;2023-10-13T01:08:57;16.20;99.90
39219;DHT22;24934;52.752;6.964;2023-10-13T01:11:23;16.20;99.90
39219;DHT22;24934;52.752;6.964;2023-10-13T01:13:49;16.20;99.90
39219;DHT22;24934;52.752;6.964;2023-10-13T01:16:20;16.20;99.90
39219;DHT22;24934;52.752;6.964;2023-10-13T01:18:53;16.20;99.90
39219;DHT22;24934;52.752;6.964;2023-10-13T01:21:19;16.20;99.90
39219;DHT22;24934;52.752;6.964;2023-10-13T01:23:53;16.20;99.90
39219;DHT22;24934;52.752;6.964;2023-10-13T01:26:19;16.20;99.90
39219;DHT22;24934;52.752;6.964;2023-10-13T01:28:50;16.20;99.90
39219;DHT22;24934;52.752;6.964;2023-10-13T01:31:17;16.20;99.90
39219;DHT22;24934;52.752;6.964;2023-10-13T01:34:03;16.20;99.90
39219;DHT22;24934;52.752;6.964;2023-10-13T01:36:29;16.20;99.90
39219;DHT22;24934;52.752;6.964;2023-10-13T01:39:00;16.20;99.90
39219;DHT22;24934;52.752;6.964;2023-10-13T01:41:27;16.20;99.90
39219;DHT22;24934;52.752;6.964;2023-10-13T01:43:52;16.20;99.90
39219;DHT22;24934;52.752;6.964;2023-10-13T01:46:22;16.20;99.90
39219;DHT22;24934;52.752;6.964;2023-10-13T01:48:48;16.20;99.90
39219;DHT22;24934;52.752;6.964;2023-10-13T01:51:14;16.20;99.90
39219;DHT22;24934;52.752;6.964;2023-10-13T01:53:40;16.20;99.90
39219;DHT22;24934;52.752;6.964;2023-10-13T01:56:09;16.20;99.90
39219;DHT22;24934;52.752;6.964;2023-10-13T01:58:38;16.20;99.90
39219;DHT22;24934;52.752;6.964;2023-10-13T02:01:11;16.20;99.90
39219;DHT22;24934;52.752;6.964;2023-10-13T02:03:39;16.20;99.90
39219;DHT22;24934;52.752;6.964;2023-10-13T02:06:12;16.20;99.90
39219;DHT22;24934;52.752;6.964;2023-10-13T02:08:43;16.20;99.90
39219;DHT22;24934;52.752;6.964;2023-10-13T02:11:09;16.20;99.90
39219;DHT22;24934;52.752;6.964;2023-10-13T02:13:35;16.20;99.90
39219;DHT22;24934;52.752;6.964;2023-10-13T02:16:07;16.20;99.90
39219;DHT22;24934;52.752;6.964;2023-10-13T02:18:32;16.20;99.90
39219;DHT22;24934;52.752;6.964;2023-10-13T02:21:08;16.20;99.90
39219;DHT22;24934;52.752;6.964;2023-10-13T02:23:44;16.20;99.90
39219;DHT22;24934;52.752;6.964;2023-10-13T02:26:14;16.20;99.90
39219;DHT22;24934;52.752;6.964;2023-10-13T02:29:00;16.20;99.90
39219;DHT22;24934;52.752;6.964;2023-10-13T02:31:30;16.20;99.90
39219;DHT22;24934;52.752;6.964;2023-10-13T02:33:56;16.10;99.90
39219;DHT22;24934;52.752;6.964;2023-10-13T02:36:22;16.10;99.90
39219;DHT22;24934;52.752;6.964;2023-10-13T02:39:02;16.20;99.90
39219;DHT22;24934;52.752;6.964;2023-10-13T02:41:33;16.10;99.90
39219;DHT22;24934;52.752;6.964;2023-10-13T02:44:03;16.10;99.90
39219;DHT22;24934;52.752;6.964;2023-10-13T02:46:32;16.10;99.90
39219;DHT22;24934;52.752;6.964;2023-10-13T02:49:01;16.20;99.90
39219;DHT22;24934;52.752;6.964;2023-10-13T02:51:35;16.20;99.90
39219;DHT22;24934;52.752;6.964;2023-10-13T02:54:01;16.10;99.90
39219;DHT22;24934;52.752;6.964;2023-10-13T02:56:36;16.10;99.90
39219;DHT22;24934;52.752;6.964;2023-10-13T02:59:02;16.20;99.90
39219;DHT22;24934;52.752;6.964;2023-10-13T03:01:35;16.10;99.90
39219;DHT22;24934;52.752;6.964;2023-10-13T03:04:02;16.20;99.90
39219;DHT22;24934;52.752;6.964;2023-10-13T03:06:28;16.10;99.90
39219;DHT22;24934;52.752;6.964;2023-10-13T03:09:06;16.20;99.90
39219;DHT22;24934;52.752;6.964;2023-10-13T03:11:50;16.10;99.90
39219;DHT22;24934;52.752;6.964;2023-10-13T03:14:16;16.20;99.90
39219;DHT22;24934;52.752;6.964;2023-10-13T03:17:03;16.20;99.90
39219;DHT22;24934;52.752;6.964;2023-10-13T03:19:34;16.20;99.90
39219;DHT22;24934;52.752;6.964;2023-10-13T03:22:03;16.20;99.90
39219;DHT22;24934;52.752;6.964;2023-10-13T03:24:37;16.20;99.90
39219;DHT22;24934;52.752;6.964;2023-10-13T03:27:07;16.10;99.90
39219;DHT22;24934;52.752;6.964;2023-10-13T03:29:38;16.20;99.90
39219;DHT22;24934;52.752;6.964;2023-10-13T03:32:13;16.20;99.90
39219;DHT22;24934;52.752;6.964;2023-10-13T03:34:43;16.20;99.90
39219;DHT22;24934;52.752;6.964;2023-10-13T03:37:31;16.20;99.90
39219;DHT22;24934;52.752;6.964;2023-10-13T03:40:07;16.20;99.90
39219;DHT22;24934;52.752;6.964;2023-10-13T03:42:58;16.20;99.90
39219;DHT22;24934;52.752;6.964;2023-10-13T03:45:26;16.20;99.90
39219;DHT22;24934;52.752;6.964;2023-10-13T03:47:52;16.20;99.90
39219;DHT22;24934;52.752;6.964;2023-10-13T05:42:08;15.90;99.90
39219;DHT22;24934;52.752;6.964;2023-10-13T05:44:52;15.90;99.90
39219;DHT22;24934;52.752;6.964;2023-10-13T05:47:36;15.90;99.90
39219;DHT22;24934;52.752;6.964;2023-10-13T05:50:08;15.90;99.90
39219;DHT22;24934;52.752;6.964;2023-10-13T05:52:47;15.90;99.90
39219;DHT22;24934;52.752;6.964;2023-10-13T05:55:28;15.90;99.90
39219;DHT22;24934;52.752;6.964;2023-10-13T05:58:13;15.90;99.90
39219;DHT22;24934;52.752;6.964;2023-10-13T06:00:58;15.90;99.90
39219;DHT22;24934;52.752;6.964;2023-10-13T06:03:42;15.90;99.90
39219;DHT22;24934;52.752;6.964;2023-10-13T06:06:26;15.90;99.90
39219;DHT22;24934;52.752;6.964;2023-10-13T06:09:10;15.90;99.90
39219;DHT22;24934;52.752;6.964;2023-10-13T06:11:54;15.90;99.90
39219;DHT22;24934;52.752;6.964;2023-10-13T06:14:39;15.90;99.90
39219;DHT22;24934;52.752;6.964;2023-10-13T06:17:24;15.90;99.90
39219;DHT22;24934;52.752;6.964;2023-10-13T06:20:09;15.90;99.90
39219;DHT22;24934;52.752;6.964;2023-10-13T06:22:53;15.90;99.90
39219;DHT22;24934;52.752;6.964;2023-10-13T06:25:38;15.80;99.90
39219;DHT22;24934;52.752;6.964;2023-10-13T06:28:22;15.80;99.90
39219;DHT22;24934;52.752;6.964;2023-10-13T06:31:06;15.80;99.90
39219;DHT22;24934;52.752;6.964;2023-10-13T06:33:32;15.80;99.90
39219;DHT22;24934;52.752;6.964;2023-10-13T06:36:02;15.80;99.90
39219;DHT22;24934;52.752;6.964;2023-10-13T06:38:29;15.80;99.90
39219;DHT22;24934;52.752;6.964;2023-10-13T06:41:02;15.80;99.90
39219;DHT22;24934;52.752;6.964;2023-10-13T06:43:34;15.80;99.90
39219;DHT22;24934;52.752;6.964;2023-10-13T06:46:08;15.80;99.90
39219;DHT22;24934;52.752;6.964;2023-10-13T06:48:40;15.90;99.90
39219;DHT22;24934;52.752;6.964;2023-10-13T06:51:06;15.90;99.90
39219;DHT22;24934;52.752;6.964;2023-10-13T06:53:48;15.90;99.90
39219;DHT22;24934;52.752;6.964;2023-10-13T06:56:14;16.00;99.90
39219;DHT22;24934;52.752;6.964;2023-10-13T06:58:53;16.10;99.90
39219;DHT22;24934;52.752;6.964;2023-10-13T07:01:27;16.20;99.90
39219;DHT22;24934;52.752;6.964;2023-10-13T07:03:53;16.30;99.90
39219;DHT22;24934;52.752;6.964;2023-10-13T07:06:22;16.40;99.90
39219;DHT22;24934;52.752;6.964;2023-10-13T07:08:48;16.40;99.90
39219;DHT22;24934;52.752;6.964;2023-10-13T07:11:27;16.50;99.90
39219;DHT22;24934;52.752;6.964;2023-10-13T07:14:02;16.50;99.90
39219;DHT22;24934;52.752;6.964;2023-10-13T07:16:56;16.50;99.90
39219;DHT22;24934;52.752;6.964;2023-10-13T07:19:26;16.50;99.90
39219;DHT22;24934;52.752;6.964;2023-10-13T07:21:55;16.50;99.90
39219;DHT22;24934;52.752;6.964;2023-10-13T07:24:28;16.50;99.90
39219;DHT22;24934;52.752;6.964;2023-10-13T07:27:00;16.50;99.90
39219;DHT22;24934;52.752;6.964;2023-10-13T07:29:31;16.60;99.90
39219;DHT22;24934;52.752;6.964;2023-10-13T07:32:00;16.60;99.90
39219;DHT22;24934;52.752;6.964;2023-10-13T07:34:29;16.60;99.90
39219;DHT22;24934;52.752;6.964;2023-10-13T07:36:58;16.60;99.90
39219;DHT22;24934;52.752;6.964;2023-10-13T07:39:29;16.60;99.90
39219;DHT22;24934;52.752;6.964;2023-10-13T07:42:04;16.70;99.90
39219;DHT22;24934;52.752;6.964;2023-10-13T07:44:31;16.70;99.90
39219;DHT22;24934;52.752;6.964;2023-10-13T07:47:01;16.70;99.90
39219;DHT22;24934;52.752;6.964;2023-10-13T07:49:40;16.70;99.90
39219;DHT22;24934;52.752;6.964;2023-10-13T07:52:11;16.70;99.90
39219;DHT22;24934;52.752;6.964;2023-10-13T07:54:47;16.80;99.90
39219;DHT22;24934;52.752;6.964;2023-10-13T07:57:24;16.80;99.90
39219;DHT22;24934;52.752;6.964;2023-10-13T07:59:56;16.80;99.90
39219;DHT22;24934;52.752;6.964;2023-10-13T08:02:42;16.80;99.90
39219;DHT22;24934;52.752;6.964;2023-10-13T08:05:15;16.80;99.90
39219;DHT22;24934;52.752;6.964;2023-10-13T08:08:05;16.80;99.90
39219;DHT22;24934;52.752;6.964;2023-10-13T08:10:40;16.80;99.90
39219;DHT22;24934;52.752;6.964;2023-10-13T08:13:07;16.70;99.90
39219;DHT22;24934;52.752;6.964;2023-10-13T08:15:40;16.70;99.90
39219;DHT22;24934;52.752;6.964;2023-10-13T08:18:12;16.70;99.90
39219;DHT22;24934;52.752;6.964;2023-10-13T08:20:58;16.70;99.90
39219;DHT22;24934;52.752;6.964;2023-10-13T08:23:29;16.70;99.90
39219;DHT22;24934;52.752;6.964;2023-10-13T08:26:13;16.70;99.90
39219;DHT22;24934;52.752;6.964;2023-10-13T08:28:58;16.80;99.90
39219;DHT22;24934;52.752;6.964;2023-10-13T08:31:45;16.80;99.90
39219;DHT22;24934;52.752;6.964;2023-10-13T08:34:31;16.80;99.90
39219;DHT22;24934;52.752;6.964;2023-10-13T08:37:18;16.90;99.90
39219;DHT22;24934;52.752;6.964;2023-10-13T08:39:51;17.00;99.90
39219;DHT22;24934;52.752;6.964;2023-10-13T08:42:41;17.00;99.90
39219;DHT22;24934;52.752;6.964;2023-10-13T08:45:12;17.10;99.90
39219;DHT22;24934;52.752;6.964;2023-10-13T08:47:50;17.10;99.90
39219;DHT22;24934;52.752;6.964;2023-10-13T08:50:48;17.10;99.90
39219;DHT22;24934;52.752;6.964;2023-10-13T08:53:21;17.30;99.90
39219;DHT22;24934;52.752;6.964;2023-10-13T08:56:12;17.40;99.90
39219;DHT22;24934;52.752;6.964;2023-10-13T08:58:52;17.40;99.90
39219;DHT22;24934;52.752;6.964;2023-10-13T09:01:22;17.50;99.90
39219;DHT22;24934;52.752;6.964;2023-10-13T09:04:08;17.60;99.90
39219;DHT22;24934;52.752;6.964;2023-10-13T09:07:03;17.70;99.90
39219;DHT22;24934;52.752;6.964;2023-10-13T09:09:32;17.80;99.90
39219;DHT22;24934;52.752;6.964;2023-10-13T09:12:11;17.90;99.90
39219;DHT22;24934;52.752;6.964;2023-10-13T09:14:40;18.00;99.90
39219;DHT22;24934;52.752;6.964;2023-10-13T09:17:13;18.10;99.90
39219;DHT22;24934;52.752;6.964;2023-10-13T09:20:07;18.10;99.90
39219;DHT22;24934;52.752;6.964;2023-10-13T09:22:55;18.20;99.90
39219;DHT22;24934;52.752;6.964;2023-10-13T09:25:40;18.20;99.90
39219;DHT22;24934;52.752;6.964;2023-10-13T09:28:20;18.20;99.90
39219;DHT22;24934;52.752;6.964;2023-10-13T09:30:52;18.30;99.90
39219;DHT22;24934;52.752;6.964;2023-10-13T09:33:23;18.30;99.90
39219;DHT22;24934;52.752;6.964;2023-10-13T09:35:59;18.40;99.90
39219;DHT22;24934;52.752;6.964;2023-10-13T09:38:27;18.50;99.90
39219;DHT22;24934;52.752;6.964;2023-10-13T09:40:54;18.50;99.90
39219;DHT22;24934;52.752;6.964;2023-10-13T09:43:23;18.60;99.90
39219;DHT22;24934;52.752;6.964;2023-10-13T09:45:51;18.60;99.90
39219;DHT22;24934;52.752;6.964;2023-10-13T09:48:36;18.50;99.90
39219;DHT22;24934;52.752;6.964;2023-10-13T09:51:09;18.50;99.90
39219;DHT22;24934;52.752;6.964;2023-10-13T09:53:37;18.40;99.90
39219;DHT22;24934;52.752;6.964;2023-10-13T09:56:12;18.30;99.90
39219;DHT22;24934;52.752;6.964;2023-10-13T09:59:01;18.30;99.90
39219;DHT22;24934;52.752;6.964;2023-10-13T10:01:38;18.30;99.90
39219;DHT22;24934;52.752;6.964;2023-10-13T10:04:16;18.30;99.90
39219;DHT22;24934;52.752;6.964;2023-10-13T10:06:53;18.30;99.90
39219;DHT22;24934;52.752;6.964;2023-10-13T10:09:25;18.40;99.90
39219;DHT22;24934;52.752;6.964;2023-10-13T10:17:29;18.60;99.90
39219;DHT22;24934;52.752;6.964;2023-10-13T10:19:58;18.60;99.90
39219;DHT22;24934;52.752;6.964;2023-10-13T10:22:29;18.60;99.90
39219;DHT22;24934;52.752;6.964;2023-10-13T10:25:05;18.60;99.90
39219;DHT22;24934;52.752;6.964;2023-10-13T10:27:57;18.60;99.90
39219;DHT22;24934;52.752;6.964;2023-10-13T10:30:27;18.60;99.90
39219;DHT22;24934;52.752;6.964;2023-10-13T10:33:00;18.60;99.90
39219;DHT22;24934;52.752;6.964;2023-10-13T10:35:27;18.70;99.90
39219;DHT22;24934;52.752;6.964;2023-10-13T10:38:11;18.60;99.90
39219;DHT22;24934;52.752;6.964;2023-10-13T10:40:49;18.60;99.90
39219;DHT22;24934;52.752;6.964;2023-10-13T10:45:52;18.70;99.90
39219;DHT22;24934;52.752;6.964;2023-10-13T10:48:18;18.90;99.90
39219;DHT22;24934;52.752;6.964;2023-10-13T10:50:54;19.00;99.90
39219;DHT22;24934;52.752;6.964;2023-10-13T10:53:23;19.00;99.90
39219;DHT22;24934;52.752;6.964;2023-10-13T10:56:08;19.10;99.90
39219;DHT22;24934;52.752;6.964;2023-10-13T10:58:49;19.10;99.90
39219;DHT22;24934;52.752;6.964;2023-10-13T11:01:21;19.10;99.90
39219;DHT22;24934;52.752;6.964;2023-10-13T11:06:20;19.20;99.90
39219;DHT22;24934;52.752;6.964;2023-10-13T11:08:49;19.20;99.90
39219;DHT22;24934;52.752;6.964;2023-10-13T11:11:28;19.20;99.90
39219;DHT22;24934;52.752;6.964;2023-10-13T11:13:56;19.20;99.90
39219;DHT22;24934;52.752;6.964;2023-10-13T11:16:45;19.30;99.90
39219;DHT22;24934;52.752;6.964;2023-10-13T11:19:16;19.30;99.90
39219;DHT22;24934;52.752;6.964;2023-10-13T11:21:42;19.40;99.90
39219;DHT22;24934;52.752;6.964;2023-10-13T11:24:08;19.60;99.90
39219;DHT22;24934;52.752;6.964;2023-10-13T11:26:37;19.60;99.90
39219;DHT22;24934;52.752;6.964;2023-10-13T11:29:17;19.60;99.90
39219;DHT22;24934;52.752;6.964;2023-10-13T11:31:48;19.60;99.90
39219;DHT22;24934;52.752;6.964;2023-10-13T11:34:20;19.60;99.90
39219;DHT22;24934;52.752;6.964;2023-10-13T11:36:46;19.60;99.90
39219;DHT22;24934;52.752;6.964;2023-10-13T11:39:11;19.70;99.90
39219;DHT22;24934;52.752;6.964;2023-10-13T11:41:43;19.70;99.90
39219;DHT22;24934;52.752;6.964;2023-10-13T11:44:19;19.70;99.90
39219;DHT22;24934;52.752;6.964;2023-10-13T11:46:45;19.90;99.90
39219;DHT22;24934;52.752;6.964;2023-10-13T11:49:13;20.10;99.90
39219;DHT22;24934;52.752;6.964;2023-10-13T11:51:40;20.10;99.90
39219;DHT22;24934;52.752;6.964;2023-10-13T11:54:12;20.10;99.90
39219;DHT22;24934;52.752;6.964;2023-10-13T11:56:37;20.10;99.90
39219;DHT22;24934;52.752;6.964;2023-10-13T11:59:04;20.00;99.90
39219;DHT22;24934;52.752;6.964;2023-10-13T12:01:31;20.10;99.90
39219;DHT22;24934;52.752;6.964;2023-10-13T12:04:17;20.00;99.90
39219;DHT22;24934;52.752;6.964;2023-10-13T12:07:01;20.10;99.90
39219;DHT22;24934;52.752;6.964;2023-10-13T12:09:43;20.10;99.90
39219;DHT22;24934;52.752;6.964;2023-10-13T12:12:30;20.10;99.90
39219;DHT22;24934;52.752;6.964;2023-10-13T12:14:56;20.10;99.90
39219;DHT22;24934;52.752;6.964;2023-10-13T12:17:27;20.10;99.90
39219;DHT22;24934;52.752;6.964;2023-10-13T12:20:06;19.90;99.90
39219;DHT22;24934;52.752;6.964;2023-10-13T12:22:37;19.90;99.90
39219;DHT22;24934;52.752;6.964;2023-10-13T12:25:08;19.90;99.90
39219;DHT22;24934;52.752;6.964;2023-10-13T12:27:57;20.00;99.90
39219;DHT22;24934;52.752;6.964;2023-10-13T12:30:26;20.10;99.90
39219;DHT22;24934;52.752;6.964;2023-10-13T12:33:13;20.10;99.90
39219;DHT22;24934;52.752;6.964;2023-10-13T12:35:41;20.10;99.90
39219;DHT22;24934;52.752;6.964;2023-10-13T12:38:24;20.10;99.90
39219;DHT22;24934;52.752;6.964;2023-10-13T12:41:19;20.10;99.90
39219;DHT22;24934;52.752;6.964;2023-10-13T12:44:05;20.10;99.90
39219;DHT22;24934;52.752;6.964;2023-10-13T12:46:52;20.10;99.90
39219;DHT22;24934;52.752;6.964;2023-10-13T12:49:36;20.30;99.90
39219;DHT22;24934;52.752;6.964;2023-10-13T12:52:16;20.40;99.90
39219;DHT22;24934;52.752;6.964;2023-10-13T12:54:45;20.30;99.90
39219;DHT22;24934;52.752;6.964;2023-10-13T12:59:51;20.40;99.90
39219;DHT22;24934;52.752;6.964;2023-10-13T13:02:24;20.50;99.90
39219;DHT22;24934;52.752;6.964;2023-10-13T13:04:56;20.50;99.90
39219;DHT22;24934;52.752;6.964;2023-10-13T13:07:27;20.50;99.90
39219;DHT22;24934;52.752;6.964;2023-10-13T13:09:55;20.50;99.90
39219;DHT22;24934;52.752;6.964;2023-10-13T13:12:24;20.40;99.90
39219;DHT22;24934;52.752;6.964;2023-10-13T13:14:50;20.30;99.90
39219;DHT22;24934;52.752;6.964;2023-10-13T13:17:23;20.30;99.90
39219;DHT22;24934;52.752;6.964;2023-10-13T13:19:48;20.50;99.90
39219;DHT22;24934;52.752;6.964;2023-10-13T13:22:14;20.40;99.90
39219;DHT22;24934;52.752;6.964;2023-10-13T13:24:42;20.50;99.90
39219;DHT22;24934;52.752;6.964;2023-10-13T13:27:14;20.50;99.90
39219;DHT22;24934;52.752;6.964;2023-10-13T13:29:44;20.50;99.90
39219;DHT22;24934;52.752;6.964;2023-10-13T13:32:10;20.50;99.90
39219;DHT22;24934;52.752;6.964;2023-10-13T13:34:44;20.50;99.90
39219;DHT22;24934;52.752;6.964;2023-10-13T13:37:21;20.60;99.90
39219;DHT22;24934;52.752;6.964;2023-10-13T13:39:46;20.50;99.90
39219;DHT22;24934;52.752;6.964;2023-10-13T13:42:12;20.50;99.90
39219;DHT22;24934;52.752;6.964;2023-10-13T13:44:44;20.60;99.90
39219;DHT22;24934;52.752;6.964;2023-10-13T13:47:12;20.60;99.90
39219;DHT22;24934;52.752;6.964;2023-10-13T13:49:39;20.50;99.90
39219;DHT22;24934;52.752;6.964;2023-10-13T13:52:09;20.60;99.90
39219;DHT22;24934;52.752;6.964;2023-10-13T13:54:35;20.60;99.90
39219;DHT22;24934;52.752;6.964;2023-10-13T13:57:01;20.50;99.90
39219;DHT22;24934;52.752;6.964;2023-10-13T13:59:26;20.40;99.90
39219;DHT22;24934;52.752;6.964;2023-10-13T14:02:01;20.20;99.90
39219;DHT22;24934;52.752;6.964;2023-10-13T14:04:31;20.10;99.90
39219;DHT22;24934;52.752;6.964;2023-10-13T14:07:00;20.00;99.90
39219;DHT22;24934;52.752;6.964;2023-10-13T14:09:31;19.80;99.90
39219;DHT22;24934;52.752;6.964;2023-10-13T14:12:06;19.80;99.90
39219;DHT22;24934;52.752;6.964;2023-10-13T14:14:50;19.70;99.90
39219;DHT22;24934;52.752;6.964;2023-10-13T14:17:21;19.50;99.90
39219;DHT22;24934;52.752;6.964;2023-10-13T14:19:55;19.40;99.90
39219;DHT22;24934;52.752;6.964;2023-10-13T14:22:21;19.30;99.90
39219;DHT22;24934;52.752;6.964;2023-10-13T14:24:50;19.30;99.90
39219;DHT22;24934;52.752;6.964;2023-10-13T14:27:20;19.20;99.90
39219;DHT22;24934;52.752;6.964;2023-10-13T14:29:49;19.10;99.90
39219;DHT22;24934;52.752;6.964;2023-10-13T14:32:19;19.10;99.90
39219;DHT22;24934;52.752;6.964;2023-10-13T14:34:49;19.00;99.90
39219;DHT22;24934;52.752;6.964;2023-10-13T14:37:20;19.00;99.90
39219;DHT22;24934;52.752;6.964;2023-10-13T14:39:58;18.90;99.90
39219;DHT22;24934;52.752;6.964;2023-10-13T14:42:26;18.90;99.90
39219;DHT22;24934;52.752;6.964;2023-10-13T14:44:51;18.80;99.90
39219;DHT22;24934;52.752;6.964;2023-10-13T14:47:24;18.80;99.90
39219;DHT22;24934;52.752;6.964;2023-10-13T14:49:53;18.70;99.90
39219;DHT22;24934;52.752;6.964;2023-10-13T14:52:31;18.60;99.90
39219;DHT22;24934;52.752;6.964;2023-10-13T14:55:00;18.50;99.90
39219;DHT22;24934;52.752;6.964;2023-10-13T14:57:26;18.40;99.90
39219;DHT22;24934;52.752;6.964;2023-10-13T14:59:56;18.30;99.90
39219;DHT22;24934;52.752;6.964;2023-10-13T15:02:23;18.20;99.90
39219;DHT22;24934;52.752;6.964;2023-10-13T15:04:48;18.10;99.90
39219;DHT22;24934;52.752;6.964;2023-10-13T15:07:15;18.10;99.90
39219;DHT22;24934;52.752;6.964;2023-10-13T15:09:43;18.00;99.90
39219;DHT22;24934;52.752;6.964;2023-10-13T15:12:12;18.00;99.90
39219;DHT22;24934;52.752;6.964;2023-10-13T15:14:41;17.90;99.90
39219;DHT22;24934;52.752;6.964;2023-10-13T15:17:09;17.90;99.90
39219;DHT22;24934;52.752;6.964;2023-10-13T15:19:37;17.90;99.90
39219;DHT22;24934;52.752;6.964;2023-10-13T15:22:09;17.90;99.90
39219;DHT22;24934;52.752;6.964;2023-10-13T15:24:47;17.80;99.90
39219;DHT22;24934;52.752;6.964;2023-10-13T15:27:25;17.90;99.90
39219;DHT22;24934;52.752;6.964;2023-10-13T15:29:54;17.80;99.90
39219;DHT22;24934;52.752;6.964;2023-10-13T15:32:20;17.70;99.90
39219;DHT22;24934;52.752;6.964;2023-10-13T15:35:04;17.70;99.90
39219;DHT22;24934;52.752;6.964;2023-10-13T15:37:30;17.70;99.90
39219;DHT22;24934;52.752;6.964;2023-10-13T15:39:56;17.70;99.90
39219;DHT22;24934;52.752;6.964;2023-10-13T15:42:23;17.70;99.90
39219;DHT22;24934;52.752;6.964;2023-10-13T15:44:49;17.70;99.90
39219;DHT22;24934;52.752;6.964;2023-10-13T15:47:15;17.60;99.90
39219;DHT22;24934;52.752;6.964;2023-10-13T15:49:41;17.60;99.90
39219;DHT22;24934;52.752;6.964;2023-10-13T15:52:11;17.60;99.90
39219;DHT22;24934;52.752;6.964;2023-10-13T15:54:37;17.60;99.90
39219;DHT22;24934;52.752;6.964;2023-10-13T15:57:03;17.60;99.90
39219;DHT22;24934;52.752;6.964;2023-10-13T15:59:32;17.60;99.90
39219;DHT22;24934;52.752;6.964;2023-10-13T16:01:59;17.60;99.90
39219;DHT22;24934;52.752;6.964;2023-10-13T16:04:25;17.60;99.90
39219;DHT22;24934;52.752;6.964;2023-10-13T16:06:50;17.60;99.90
39219;DHT22;24934;52.752;6.964;2023-10-13T16:09:17;17.60;99.90
39219;DHT22;24934;52.752;6.964;2023-10-13T16:11:51;17.50;99.90
39219;DHT22;24934;52.752;6.964;2023-10-13T16:14:18;17.50;99.90
39219;DHT22;24934;52.752;6.964;2023-10-13T16:16:48;17.50;99.90
39219;DHT22;24934;52.752;6.964;2023-10-13T16:19:18;17.50;99.90
39219;DHT22;24934;52.752;6.964;2023-10-13T16:21:54;17.50;99.90
39219;DHT22;24934;52.752;6.964;2023-10-13T16:24:20;17.40;99.90
39219;DHT22;24934;52.752;6.964;2023-10-13T16:26:47;17.40;99.90
39219;DHT22;24934;52.752;6.964;2023-10-13T16:29:24;17.40;99.90
39219;DHT22;24934;52.752;6.964;2023-10-13T16:31:50;17.40;99.90
39219;DHT22;24934;52.752;6.964;2023-10-13T16:34:16;17.40;99.90
39219;DHT22;24934;52.752;6.964;2023-10-13T16:36:46;17.40;99.90
39219;DHT22;24934;52.752;6.964;2023-10-13T16:39:12;17.40;99.90
39219;DHT22;24934;52.752;6.964;2023-10-13T16:41:45;17.30;99.90
39219;DHT22;24934;52.752;6.964;2023-10-13T16:44:11;17.30;99.90
39219;DHT22;24934;52.752;6.964;2023-10-13T16:46:43;17.30;99.90
39219;DHT22;24934;52.752;6.964;2023-10-13T16:49:09;17.30;99.90
39219;DHT22;24934;52.752;6.964;2023-10-13T16:51:36;17.30;99.90
39219;DHT22;24934;52.752;6.964;2023-10-13T16:54:02;17.40;99.90
39219;DHT22;24934;52.752;6.964;2023-10-13T16:56:28;17.30;99.90
39219;DHT22;24934;52.752;6.964;2023-10-13T16:58:53;17.40;99.90
39219;DHT22;24934;52.752;6.964;2023-10-13T17:01:22;17.40;99.90
39219;DHT22;24934;52.752;6.964;2023-10-13T17:03:48;17.40;99.90
39219;DHT22;24934;52.752;6.964;2023-10-13T17:06:15;17.40;99.90
39219;DHT22;24934;52.752;6.964;2023-10-13T17:08:41;17.30;99.90
39219;DHT22;24934;52.752;6.964;2023-10-13T17:11:12;17.30;99.90
39219;DHT22;24934;52.752;6.964;2023-10-13T17:13:39;17.30;99.90
39219;DHT22;24934;52.752;6.964;2023-10-13T17:16:21;17.30;99.90
39219;DHT22;24934;52.752;6.964;2023-10-13T17:18:49;17.30;99.90
39219;DHT22;24934;52.752;6.964;2023-10-13T17:21:21;17.40;99.90
39219;DHT22;24934;52.752;6.964;2023-10-13T17:23:48;17.40;99.90
39219;DHT22;24934;52.752;6.964;2023-10-13T17:26:17;17.40;99.90
39219;DHT22;24934;52.752;6.964;2023-10-13T17:28:43;17.30;99.90
39219;DHT22;24934;52.752;6.964;2023-10-13T17:31:09;17.30;99.90
39219;DHT22;24934;52.752;6.964;2023-10-13T17:33:36;17.30;99.90
39219;DHT22;24934;52.752;6.964;2023-10-13T17:36:11;17.30;99.90
39219;DHT22;24934;52.752;6.964;2023-10-13T17:38:38;17.30;99.90
39219;DHT22;24934;52.752;6.964;2023-10-13T17:41:04;17.30;99.90
39219;DHT22;24934;52.752;6.964;2023-10-13T17:43:31;17.30;99.90
39219;DHT22;24934;52.752;6.964;2023-10-13T17:46:04;17.30;99.90
39219;DHT22;24934;52.752;6.964;2023-10-13T17:48:31;17.30;99.90
39219;DHT22;24934;52.752;6.964;2023-10-13T17:50:57;17.30;99.90
39219;DHT22;24934;52.752;6.964;2023-10-13T17:53:22;17.30;99.90
39219;DHT22;24934;52.752;6.964;2023-10-13T17:55:48;17.30;99.90
39219;DHT22;24934;52.752;6.964;2023-10-13T17:58:16;17.20;99.90
39219;DHT22;24934;52.752;6.964;2023-10-13T18:00:41;17.20;99.90
39219;DHT22;24934;52.752;6.964;2023-10-13T18:03:11;17.20;99.90
39219;DHT22;24934;52.752;6.964;2023-10-13T18:05:37;17.20;99.90
39219;DHT22;24934;52.752;6.964;2023-10-13T18:08:05;17.20;99.90